sensor_id;sensor_type;location;lat;lon;timestamp;temperature;humidity
73547;SHT30;61807;48.384;-4.386;2023-03-14T00:00:32;11.47;77.73
73547;SHT30;61807;48.384;-4.386;2023-03-14T00:02:57;11.37;77.37
73547;SHT30;61807;48.384;-4.386;2023-03-14T00:05:22;11.33;77.42
73547;SHT30;61807;48.384;-4.386;2023-03-14T00:07:48;11.27;77.12
73547;SHT30;61807;48.384;-4.386;2023-03-14T00:10:14;11.25;77.47
73547;SHT30;61807;48.384;-4.386;2023-03-14T00:12:41;11.19;77.59
73547;SHT30;61807;48.384;-4.386;2023-03-14T00:15:07;11.15;77.11
73547;SHT30;61807;48.384;-4.386;2023-03-14T00:17:34;11.09;77.43
73547;SHT30;61807;48.384;-4.386;2023-03-14T00:20:00;11.05;77.27
73547;SHT30;61807;48.384;-4.386;2023-03-14T00:22:35;11.06;77.54
73547;SHT30;61807;48.384;-4.386;2023-03-14T00:25:01;11.04;77.43
73547;SHT30;61807;48.384;-4.386;2023-03-14T00:27:27;11.04;77.16
73547;SHT30;61807;48.384;-4.386;2023-03-14T00:29:52;11.02;76.62
73547;SHT30;61807;48.384;-4.386;2023-03-14T00:32:18;10.98;76.83
73547;SHT30;61807;48.384;-4.386;2023-03-14T00:34:43;10.99;76.52
73547;SHT30;61807;48.384;-4.386;2023-03-14T00:37:08;10.96;76.45
73547;SHT30;61807;48.384;-4.386;2023-03-14T00:39:34;10.95;76.57
73547;SHT30;61807;48.384;-4.386;2023-03-14T00:41:59;10.92;76.38
73547;SHT30;61807;48.384;-4.386;2023-03-14T00:44:25;10.89;75.76
73547;SHT30;61807;48.384;-4.386;2023-03-14T00:46:50;10.86;75.75
73547;SHT30;61807;48.384;-4.386;2023-03-14T00:49:16;10.82;75.61
73547;SHT30;61807;48.384;-4.386;2023-03-14T00:51:41;10.79;75.75
73547;SHT30;61807;48.384;-4.386;2023-03-14T00:54:06;10.78;75.22
73547;SHT30;61807;48.384;-4.386;2023-03-14T00:56:32;10.74;75.63
73547;SHT30;61807;48.384;-4.386;2023-03-14T00:58:57;10.74;75.32
73547;SHT30;61807;48.384;-4.386;2023-03-14T01:01:23;10.74;75.67
73547;SHT30;61807;48.384;-4.386;2023-03-14T01:03:51;10.72;75.84
73547;SHT30;61807;48.384;-4.386;2023-03-14T01:06:26;10.75;75.91
73547;SHT30;61807;48.384;-4.386;2023-03-14T01:08:53;10.75;75.76
73547;SHT30;61807;48.384;-4.386;2023-03-14T01:11:24;10.79;75.70
73547;SHT30;61807;48.384;-4.386;2023-03-14T01:13:51;10.79;75.34
73547;SHT30;61807;48.384;-4.386;2023-03-14T01:16:17;10.79;75.38
73547;SHT30;61807;48.384;-4.386;2023-03-14T01:18:44;10.76;74.58
73547;SHT30;61807;48.384;-4.386;2023-03-14T01:21:16;10.74;74.01
73547;SHT30;61807;48.384;-4.386;2023-03-14T01:23:42;10.72;74.09
73547;SHT30;61807;48.384;-4.386;2023-03-14T01:26:09;10.71;74.20
73547;SHT30;61807;48.384;-4.386;2023-03-14T01:28:35;10.71;73.90
73547;SHT30;61807;48.384;-4.386;2023-03-14T01:31:09;10.69;74.32
73547;SHT30;61807;48.384;-4.386;2023-03-14T01:33:35;10.74;74.55
73547;SHT30;61807;48.384;-4.386;2023-03-14T01:36:01;10.68;74.47
73547;SHT30;61807;48.384;-4.386;2023-03-14T01:38:30;10.61;74.39
73547;SHT30;61807;48.384;-4.386;2023-03-14T01:40:56;10.55;74.16
73547;SHT30;61807;48.384;-4.386;2023-03-14T01:43:22;10.51;73.24
73547;SHT30;61807;48.384;-4.386;2023-03-14T01:48:43;10.43;73.34
73547;SHT30;61807;48.384;-4.386;2023-03-14T01:51:12;10.40;73.46
73547;SHT30;61807;48.384;-4.386;2023-03-14T01:53:40;10.41;72.14
73547;SHT30;61807;48.384;-4.386;2023-03-14T01:56:10;10.36;71.68
73547;SHT30;61807;48.384;-4.386;2023-03-14T01:58:37;10.38;71.91
73547;SHT30;61807;48.384;-4.386;2023-03-14T02:01:05;10.38;71.94
73547;SHT30;61807;48.384;-4.386;2023-03-14T02:03:35;10.34;70.44
73547;SHT30;61807;48.384;-4.386;2023-03-14T02:06:04;10.29;71.16
73547;SHT30;61807;48.384;-4.386;2023-03-14T02:08:31;10.29;70.84
73547;SHT30;61807;48.384;-4.386;2023-03-14T02:10:58;10.24;70.85
73547;SHT30;61807;48.384;-4.386;2023-03-14T02:13:23;10.20;71.07
73547;SHT30;61807;48.384;-4.386;2023-03-14T02:15:49;10.20;71.47
73547;SHT30;61807;48.384;-4.386;2023-03-14T02:18:16;10.18;71.63
73547;SHT30;61807;48.384;-4.386;2023-03-14T02:26:23;10.20;72.19
73547;SHT30;61807;48.384;-4.386;2023-03-14T02:28:51;10.18;72.11
73547;SHT30;61807;48.384;-4.386;2023-03-14T02:31:20;10.14;72.16
73547;SHT30;61807;48.384;-4.386;2023-03-14T02:33:46;10.10;72.30
73547;SHT30;61807;48.384;-4.386;2023-03-14T02:36:14;10.07;72.52
73547;SHT30;61807;48.384;-4.386;2023-03-14T02:38:52;10.05;72.25
73547;SHT30;61807;48.384;-4.386;2023-03-14T02:41:18;10.00;72.14
73547;SHT30;61807;48.384;-4.386;2023-03-14T02:43:44;10.00;71.93
73547;SHT30;61807;48.384;-4.386;2023-03-14T02:46:14;10.03;72.05
73547;SHT30;61807;48.384;-4.386;2023-03-14T02:48:45;10.03;71.49
73547;SHT30;61807;48.384;-4.386;2023-03-14T02:51:11;10.00;71.31
73547;SHT30;61807;48.384;-4.386;2023-03-14T02:53:37;9.99;69.01
73547;SHT30;61807;48.384;-4.386;2023-03-14T02:56:04;9.93;69.02
73547;SHT30;61807;48.384;-4.386;2023-03-14T02:58:30;9.93;69.39
73547;SHT30;61807;48.384;-4.386;2023-03-14T03:00:55;9.90;68.99
73547;SHT30;61807;48.384;-4.386;2023-03-14T03:03:21;9.89;68.70
73547;SHT30;61807;48.384;-4.386;2023-03-14T03:05:50;9.88;68.95
73547;SHT30;61807;48.384;-4.386;2023-03-14T03:08:17;9.88;69.10
73547;SHT30;61807;48.384;-4.386;2023-03-14T03:10:43;9.89;69.09
73547;SHT30;61807;48.384;-4.386;2023-03-14T03:13:08;9.92;68.99
73547;SHT30;61807;48.384;-4.386;2023-03-14T03:15:34;9.95;69.19
73547;SHT30;61807;48.384;-4.386;2023-03-14T03:17:59;9.96;69.06
73547;SHT30;61807;48.384;-4.386;2023-03-14T03:20:25;9.90;68.66
73547;SHT30;61807;48.384;-4.386;2023-03-14T03:22:50;9.86;69.25
73547;SHT30;61807;48.384;-4.386;2023-03-14T03:25:16;9.83;69.17
73547;SHT30;61807;48.384;-4.386;2023-03-14T03:27:41;9.79;69.91
73547;SHT30;61807;48.384;-4.386;2023-03-14T03:30:08;9.81;70.25
73547;SHT30;61807;48.384;-4.386;2023-03-14T03:32:34;9.78;70.47
73547;SHT30;61807;48.384;-4.386;2023-03-14T03:34:59;9.69;70.60
73547;SHT30;61807;48.384;-4.386;2023-03-14T03:37:24;9.65;70.90
73547;SHT30;61807;48.384;-4.386;2023-03-14T03:39:51;9.61;71.24
73547;SHT30;61807;48.384;-4.386;2023-03-14T03:42:17;9.59;71.38
73547;SHT30;61807;48.384;-4.386;2023-03-14T03:44:42;9.59;71.57
73547;SHT30;61807;48.384;-4.386;2023-03-14T03:47:08;9.55;71.65
73547;SHT30;61807;48.384;-4.386;2023-03-14T03:49:33;9.58;71.50
73547;SHT30;61807;48.384;-4.386;2023-03-14T03:51:59;9.57;71.62
73547;SHT30;61807;48.384;-4.386;2023-03-14T03:54:24;9.58;71.62
73547;SHT30;61807;48.384;-4.386;2023-03-14T03:56:50;9.55;71.38
73547;SHT30;61807;48.384;-4.386;2023-03-14T03:59:16;9.61;71.21
73547;SHT30;61807;48.384;-4.386;2023-03-14T04:01:42;9.63;71.13
73547;SHT30;61807;48.384;-4.386;2023-03-14T04:04:07;9.62;70.51
73547;SHT30;61807;48.384;-4.386;2023-03-14T04:06:33;9.58;70.38
73547;SHT30;61807;48.384;-4.386;2023-03-14T04:08:58;9.58;70.49
73547;SHT30;61807;48.384;-4.386;2023-03-14T04:11:24;9.59;70.47
73547;SHT30;61807;48.384;-4.386;2023-03-14T04:13:49;9.55;70.50
73547;SHT30;61807;48.384;-4.386;2023-03-14T04:16:18;9.61;70.25
73547;SHT30;61807;48.384;-4.386;2023-03-14T04:18:44;9.65;69.88
73547;SHT30;61807;48.384;-4.386;2023-03-14T04:21:10;9.66;70.00
73547;SHT30;61807;48.384;-4.386;2023-03-14T04:23:35;9.72;69.76
73547;SHT30;61807;48.384;-4.386;2023-03-14T04:26:01;9.72;69.61
73547;SHT30;61807;48.384;-4.386;2023-03-14T04:28:27;9.76;69.33
73547;SHT30;61807;48.384;-4.386;2023-03-14T04:30:52;9.79;69.60
73547;SHT30;61807;48.384;-4.386;2023-03-14T04:33:18;9.83;69.76
73547;SHT30;61807;48.384;-4.386;2023-03-14T04:35:44;9.82;70.08
73547;SHT30;61807;48.384;-4.386;2023-03-14T04:38:10;9.81;70.52
73547;SHT30;61807;48.384;-4.386;2023-03-14T04:40:37;9.79;70.72
73547;SHT30;61807;48.384;-4.386;2023-03-14T04:43:03;9.76;70.69
73547;SHT30;61807;48.384;-4.386;2023-03-14T04:45:28;9.76;70.87
73547;SHT30;61807;48.384;-4.386;2023-03-14T04:47:54;9.78;70.87
73547;SHT30;61807;48.384;-4.386;2023-03-14T04:50:19;9.71;70.55
73547;SHT30;61807;48.384;-4.386;2023-03-14T04:52:44;9.66;70.37
73547;SHT30;61807;48.384;-4.386;2023-03-14T04:55:10;9.62;70.19
73547;SHT30;61807;48.384;-4.386;2023-03-14T04:57:35;9.57;70.11
73547;SHT30;61807;48.384;-4.386;2023-03-14T05:00:01;9.58;70.37
73547;SHT30;61807;48.384;-4.386;2023-03-14T05:02:31;9.54;70.43
73547;SHT30;61807;48.384;-4.386;2023-03-14T05:04:56;9.52;70.55
73547;SHT30;61807;48.384;-4.386;2023-03-14T05:07:22;9.51;70.58
73547;SHT30;61807;48.384;-4.386;2023-03-14T05:09:47;9.51;70.35
73547;SHT30;61807;48.384;-4.386;2023-03-14T05:12:13;9.54;70.09
73547;SHT30;61807;48.384;-4.386;2023-03-14T05:14:38;9.52;70.12
73547;SHT30;61807;48.384;-4.386;2023-03-14T05:17:05;9.54;70.06
73547;SHT30;61807;48.384;-4.386;2023-03-14T05:19:30;9.58;70.08
73547;SHT30;61807;48.384;-4.386;2023-03-14T05:21:56;9.55;69.98
73547;SHT30;61807;48.384;-4.386;2023-03-14T05:24:21;9.55;69.65
73547;SHT30;61807;48.384;-4.386;2023-03-14T05:26:47;9.57;69.66
73547;SHT30;61807;48.384;-4.386;2023-03-14T05:29:12;9.55;69.72
73547;SHT30;61807;48.384;-4.386;2023-03-14T05:31:38;9.59;69.80
73547;SHT30;61807;48.384;-4.386;2023-03-14T05:34:03;9.61;69.57
73547;SHT30;61807;48.384;-4.386;2023-03-14T05:36:29;9.59;69.61
73547;SHT30;61807;48.384;-4.386;2023-03-14T05:38:54;9.59;69.77
73547;SHT30;61807;48.384;-4.386;2023-03-14T05:41:19;9.59;69.82
73547;SHT30;61807;48.384;-4.386;2023-03-14T05:43:45;9.63;69.95
73547;SHT30;61807;48.384;-4.386;2023-03-14T05:46:10;9.65;70.05
73547;SHT30;61807;48.384;-4.386;2023-03-14T05:48:36;9.71;69.89
73547;SHT30;61807;48.384;-4.386;2023-03-14T05:51:01;9.72;69.89
73547;SHT30;61807;48.384;-4.386;2023-03-14T05:53:27;9.74;69.97
73547;SHT30;61807;48.384;-4.386;2023-03-14T05:55:55;9.74;70.03
73547;SHT30;61807;48.384;-4.386;2023-03-14T05:58:20;9.74;70.11
73547;SHT30;61807;48.384;-4.386;2023-03-14T06:00:46;9.72;69.92
73547;SHT30;61807;48.384;-4.386;2023-03-14T06:03:12;9.72;70.09
73547;SHT30;61807;48.384;-4.386;2023-03-14T06:05:37;9.71;70.37
73547;SHT30;61807;48.384;-4.386;2023-03-14T06:08:03;9.65;70.35
73547;SHT30;61807;48.384;-4.386;2023-03-14T06:10:28;9.68;70.40
73547;SHT30;61807;48.384;-4.386;2023-03-14T06:12:54;9.66;70.48
73547;SHT30;61807;48.384;-4.386;2023-03-14T06:15:19;9.65;70.60
73547;SHT30;61807;48.384;-4.386;2023-03-14T06:17:45;9.63;70.38
73547;SHT30;61807;48.384;-4.386;2023-03-14T06:20:11;9.62;70.66
73547;SHT30;61807;48.384;-4.386;2023-03-14T06:22:36;9.63;70.65
73547;SHT30;61807;48.384;-4.386;2023-03-14T06:25:04;9.63;70.63
73547;SHT30;61807;48.384;-4.386;2023-03-14T06:27:29;9.66;70.66
73547;SHT30;61807;48.384;-4.386;2023-03-14T06:29:55;9.66;70.56
73547;SHT30;61807;48.384;-4.386;2023-03-14T06:32:21;9.69;70.27
73547;SHT30;61807;48.384;-4.386;2023-03-14T06:34:46;9.69;70.17
73547;SHT30;61807;48.384;-4.386;2023-03-14T06:37:11;9.71;70.13
73547;SHT30;61807;48.384;-4.386;2023-03-14T06:39:37;9.72;70.19
73547;SHT30;61807;48.384;-4.386;2023-03-14T06:42:03;9.72;70.08
73547;SHT30;61807;48.384;-4.386;2023-03-14T06:44:29;9.74;70.08
73547;SHT30;61807;48.384;-4.386;2023-03-14T06:46:54;9.74;69.72
73547;SHT30;61807;48.384;-4.386;2023-03-14T06:49:19;9.78;69.83
73547;SHT30;61807;48.384;-4.386;2023-03-14T06:51:45;9.81;69.92
73547;SHT30;61807;48.384;-4.386;2023-03-14T06:54:10;9.83;69.69
73547;SHT30;61807;48.384;-4.386;2023-03-14T06:56:36;9.83;69.76
73547;SHT30;61807;48.384;-4.386;2023-03-14T06:59:01;9.88;69.86
73547;SHT30;61807;48.384;-4.386;2023-03-14T07:01:29;9.92;70.12
73547;SHT30;61807;48.384;-4.386;2023-03-14T07:03:55;9.92;70.47
73547;SHT30;61807;48.384;-4.386;2023-03-14T07:06:20;9.85;71.25
73547;SHT30;61807;48.384;-4.386;2023-03-14T07:08:46;9.72;71.87
73547;SHT30;61807;48.384;-4.386;2023-03-14T07:11:12;9.58;72.18
73547;SHT30;61807;48.384;-4.386;2023-03-14T07:13:38;9.49;72.38
73547;SHT30;61807;48.384;-4.386;2023-03-14T07:16:04;9.45;72.59
73547;SHT30;61807;48.384;-4.386;2023-03-14T07:18:29;9.39;72.57
73547;SHT30;61807;48.384;-4.386;2023-03-14T07:20:55;9.41;72.61
73547;SHT30;61807;48.384;-4.386;2023-03-14T07:23:20;9.39;72.37
73547;SHT30;61807;48.384;-4.386;2023-03-14T07:25:46;9.41;72.35
73547;SHT30;61807;48.384;-4.386;2023-03-14T07:28:11;9.39;72.45
73547;SHT30;61807;48.384;-4.386;2023-03-14T07:30:36;9.42;72.26
73547;SHT30;61807;48.384;-4.386;2023-03-14T07:33:02;9.41;72.10
73547;SHT30;61807;48.384;-4.386;2023-03-14T07:35:27;9.41;72.31
73547;SHT30;61807;48.384;-4.386;2023-03-14T07:37:53;9.42;72.29
73547;SHT30;61807;48.384;-4.386;2023-03-14T07:40:18;9.44;72.25
73547;SHT30;61807;48.384;-4.386;2023-03-14T07:42:43;9.51;72.24
73547;SHT30;61807;48.384;-4.386;2023-03-14T07:45:10;9.55;72.14
73547;SHT30;61807;48.384;-4.386;2023-03-14T07:47:36;9.69;71.93
73547;SHT30;61807;48.384;-4.386;2023-03-14T07:50:03;9.75;71.43
73547;SHT30;61807;48.384;-4.386;2023-03-14T07:52:29;9.78;71.23
73547;SHT30;61807;48.384;-4.386;2023-03-14T07:54:54;9.82;71.14
73547;SHT30;61807;48.384;-4.386;2023-03-14T07:57:19;9.92;70.83
73547;SHT30;61807;48.384;-4.386;2023-03-14T07:59:45;10.03;70.77
73547;SHT30;61807;48.384;-4.386;2023-03-14T08:02:11;10.12;69.94
73547;SHT30;61807;48.384;-4.386;2023-03-14T08:04:38;10.16;70.32
73547;SHT30;61807;48.384;-4.386;2023-03-14T08:07:04;10.21;69.97
73547;SHT30;61807;48.384;-4.386;2023-03-14T08:09:29;10.27;69.95
73547;SHT30;61807;48.384;-4.386;2023-03-14T08:11:55;10.34;69.97
73547;SHT30;61807;48.384;-4.386;2023-03-14T08:14:20;10.47;69.87
73547;SHT30;61807;48.384;-4.386;2023-03-14T08:16:46;10.55;69.49
73547;SHT30;61807;48.384;-4.386;2023-03-14T08:19:11;10.64;69.59
73547;SHT30;61807;48.384;-4.386;2023-03-14T08:21:36;10.67;69.17
73547;SHT30;61807;48.384;-4.386;2023-03-14T08:24:02;10.69;68.98
73547;SHT30;61807;48.384;-4.386;2023-03-14T08:26:27;10.75;68.37
73547;SHT30;61807;48.384;-4.386;2023-03-14T08:28:53;10.78;67.95
73547;SHT30;61807;48.384;-4.386;2023-03-14T08:31:18;10.82;66.80
73547;SHT30;61807;48.384;-4.386;2023-03-14T08:33:43;10.89;66.72
73547;SHT30;61807;48.384;-4.386;2023-03-14T08:36:09;11.01;66.59
73547;SHT30;61807;48.384;-4.386;2023-03-14T08:38:34;11.05;66.61
73547;SHT30;61807;48.384;-4.386;2023-03-14T08:41:01;11.13;66.53
73547;SHT30;61807;48.384;-4.386;2023-03-14T08:43:27;11.15;66.16
73547;SHT30;61807;48.384;-4.386;2023-03-14T08:45:53;11.23;66.60
73547;SHT30;61807;48.384;-4.386;2023-03-14T08:48:18;11.22;65.02
73547;SHT30;61807;48.384;-4.386;2023-03-14T08:50:45;11.23;64.25
73547;SHT30;61807;48.384;-4.386;2023-03-14T08:53:10;11.30;64.23
73547;SHT30;61807;48.384;-4.386;2023-03-14T08:55:35;11.42;64.32
73547;SHT30;61807;48.384;-4.386;2023-03-14T08:58:01;11.62;64.20
73547;SHT30;61807;48.384;-4.386;2023-03-14T09:00:26;11.85;63.92
73547;SHT30;61807;48.384;-4.386;2023-03-14T09:02:52;12.06;64.39
73547;SHT30;61807;48.384;-4.386;2023-03-14T09:05:17;12.43;64.75
73547;SHT30;61807;48.384;-4.386;2023-03-14T09:07:43;12.70;63.64
73547;SHT30;61807;48.384;-4.386;2023-03-14T09:10:09;12.99;63.34
73547;SHT30;61807;48.384;-4.386;2023-03-14T09:12:35;13.30;61.32
73547;SHT30;61807;48.384;-4.386;2023-03-14T09:15:01;13.47;61.05
73547;SHT30;61807;48.384;-4.386;2023-03-14T09:17:27;13.49;59.21
73547;SHT30;61807;48.384;-4.386;2023-03-14T09:19:52;13.52;59.62
73547;SHT30;61807;48.384;-4.386;2023-03-14T09:22:18;13.39;59.05
73547;SHT30;61807;48.384;-4.386;2023-03-14T09:24:43;13.28;58.73
73547;SHT30;61807;48.384;-4.386;2023-03-14T09:27:09;13.12;59.22
73547;SHT30;61807;48.384;-4.386;2023-03-14T09:29:34;13.10;59.77
73547;SHT30;61807;48.384;-4.386;2023-03-14T09:32:00;13.10;60.00
73547;SHT30;61807;48.384;-4.386;2023-03-14T09:34:26;13.10;60.03
73547;SHT30;61807;48.384;-4.386;2023-03-14T09:36:51;13.12;59.71
73547;SHT30;61807;48.384;-4.386;2023-03-14T09:39:17;13.21;60.28
73547;SHT30;61807;48.384;-4.386;2023-03-14T09:41:44;13.25;59.72
73547;SHT30;61807;48.384;-4.386;2023-03-14T09:44:18;13.22;59.63
73547;SHT30;61807;48.384;-4.386;2023-03-14T09:46:48;13.21;59.88
73547;SHT30;61807;48.384;-4.386;2023-03-14T09:51:49;12.93;59.77
73547;SHT30;61807;48.384;-4.386;2023-03-14T09:54:31;12.83;59.50
73547;SHT30;61807;48.384;-4.386;2023-03-14T09:56:57;12.76;60.33
73547;SHT30;61807;48.384;-4.386;2023-03-14T09:59:23;12.79;59.94
73547;SHT30;61807;48.384;-4.386;2023-03-14T10:01:49;12.76;60.60
73547;SHT30;61807;48.384;-4.386;2023-03-14T10:04:17;12.75;60.82
73547;SHT30;61807;48.384;-4.386;2023-03-14T10:06:45;12.76;60.30
73547;SHT30;61807;48.384;-4.386;2023-03-14T10:09:19;12.75;60.52
73547;SHT30;61807;48.384;-4.386;2023-03-14T10:11:51;12.73;59.54
73547;SHT30;61807;48.384;-4.386;2023-03-14T10:14:37;12.64;59.91
73547;SHT30;61807;48.384;-4.386;2023-03-14T10:17:08;12.59;60.01
73547;SHT30;61807;48.384;-4.386;2023-03-14T10:19:35;12.50;59.40
73547;SHT30;61807;48.384;-4.386;2023-03-14T10:22:04;12.46;59.86
73547;SHT30;61807;48.384;-4.386;2023-03-14T10:24:34;12.49;60.07
73547;SHT30;61807;48.384;-4.386;2023-03-14T10:27:01;12.57;60.78
73547;SHT30;61807;48.384;-4.386;2023-03-14T10:29:28;12.64;60.44
73547;SHT30;61807;48.384;-4.386;2023-03-14T10:32:01;12.76;60.44
73547;SHT30;61807;48.384;-4.386;2023-03-14T10:35:03;12.80;58.44
73547;SHT30;61807;48.384;-4.386;2023-03-14T10:37:29;12.73;59.01
73547;SHT30;61807;48.384;-4.386;2023-03-14T10:40:02;12.73;59.48
73547;SHT30;61807;48.384;-4.386;2023-03-14T10:42:32;12.77;59.50
73547;SHT30;61807;48.384;-4.386;2023-03-14T10:45:22;12.86;59.48
73547;SHT30;61807;48.384;-4.386;2023-03-14T10:47:51;12.96;59.63
73547;SHT30;61807;48.384;-4.386;2023-03-14T10:50:31;13.04;59.48
73547;SHT30;61807;48.384;-4.386;2023-03-14T10:52:59;13.12;60.02
73547;SHT30;61807;48.384;-4.386;2023-03-14T10:55:26;13.20;58.48
73547;SHT30;61807;48.384;-4.386;2023-03-14T10:57:51;13.25;59.36
73547;SHT30;61807;48.384;-4.386;2023-03-14T11:00:22;13.31;59.89
73547;SHT30;61807;48.384;-4.386;2023-03-14T11:02:57;13.37;60.28
73547;SHT30;61807;48.384;-4.386;2023-03-14T11:05:49;13.35;59.32
73547;SHT30;61807;48.384;-4.386;2023-03-14T11:08:31;13.27;59.43
73547;SHT30;61807;48.384;-4.386;2023-03-14T11:11:23;13.22;59.07
73547;SHT30;61807;48.384;-4.386;2023-03-14T11:14:19;13.06;58.51
73547;SHT30;61807;48.384;-4.386;2023-03-14T11:23:21;12.72;59.98
73547;SHT30;61807;48.384;-4.386;2023-03-14T11:28:37;12.84;59.41
73547;SHT30;61807;48.384;-4.386;2023-03-14T11:31:16;12.83;59.17
73547;SHT30;61807;48.384;-4.386;2023-03-14T11:36:14;12.87;59.60
73547;SHT30;61807;48.384;-4.386;2023-03-14T11:38:49;13.04;59.44
73547;SHT30;61807;48.384;-4.386;2023-03-14T11:41:39;13.15;59.88
73547;SHT30;61807;48.384;-4.386;2023-03-14T11:44:17;13.35;60.13
73547;SHT30;61807;48.384;-4.386;2023-03-14T11:46:52;13.57;59.34
73547;SHT30;61807;48.384;-4.386;2023-03-14T11:49:34;13.63;58.97
73547;SHT30;61807;48.384;-4.386;2023-03-14T11:54:56;13.93;58.39
73547;SHT30;61807;48.384;-4.386;2023-03-14T11:57:24;14.06;57.61
73547;SHT30;61807;48.384;-4.386;2023-03-14T12:10:54;14.42;54.91
73547;SHT30;61807;48.384;-4.386;2023-03-14T12:13:21;14.72;55.24
73547;SHT30;61807;48.384;-4.386;2023-03-14T12:15:55;15.56;55.97
73547;SHT30;61807;48.384;-4.386;2023-03-14T12:18:31;16.67;56.05
73547;SHT30;61807;48.384;-4.386;2023-03-14T12:21:03;17.62;54.78
73547;SHT30;61807;48.384;-4.386;2023-03-14T12:23:44;18.14;52.53
73547;SHT30;61807;48.384;-4.386;2023-03-14T12:28:36;17.90;50.33
73547;SHT30;61807;48.384;-4.386;2023-03-14T12:47:24;16.33;51.01
73547;SHT30;61807;48.384;-4.386;2023-03-14T12:49:53;16.55;51.40
73547;SHT30;61807;48.384;-4.386;2023-03-14T12:52:33;17.51;49.84
73547;SHT30;61807;48.384;-4.386;2023-03-14T12:55:33;18.27;48.23
73547;SHT30;61807;48.384;-4.386;2023-03-14T12:58:10;19.20;46.70
73547;SHT30;61807;48.384;-4.386;2023-03-14T13:00:41;19.91;47.01
73547;SHT30;61807;48.384;-4.386;2023-03-14T13:06:01;21.30;46.40
73547;SHT30;61807;48.384;-4.386;2023-03-14T13:08:38;21.80;45.63
73547;SHT30;61807;48.384;-4.386;2023-03-14T13:11:10;21.97;43.65
73547;SHT30;61807;48.384;-4.386;2023-03-14T13:13:42;21.97;42.35
73547;SHT30;61807;48.384;-4.386;2023-03-14T13:16:14;21.99;43.15
73547;SHT30;61807;48.384;-4.386;2023-03-14T13:18:42;22.01;43.71
73547;SHT30;61807;48.384;-4.386;2023-03-14T13:23:40;21.08;43.93
73547;SHT30;61807;48.384;-4.386;2023-03-14T13:26:11;20.16;43.91
73547;SHT30;61807;48.384;-4.386;2023-03-14T13:28:38;19.34;44.46
73547;SHT30;61807;48.384;-4.386;2023-03-14T13:31:04;18.64;45.15
73547;SHT30;61807;48.384;-4.386;2023-03-14T13:33:32;18.06;46.34
73547;SHT30;61807;48.384;-4.386;2023-03-14T13:36:00;17.65;47.34
73547;SHT30;61807;48.384;-4.386;2023-03-14T13:38:28;17.31;47.59
73547;SHT30;61807;48.384;-4.386;2023-03-14T13:40:57;17.06;47.39
73547;SHT30;61807;48.384;-4.386;2023-03-14T13:43:29;16.83;48.30
73547;SHT30;61807;48.384;-4.386;2023-03-14T13:46:10;16.57;49.07
73547;SHT30;61807;48.384;-4.386;2023-03-14T13:48:44;16.26;48.78
73547;SHT30;61807;48.384;-4.386;2023-03-14T13:51:12;16.04;49.34
73547;SHT30;61807;48.384;-4.386;2023-03-14T13:53:46;15.77;49.38
73547;SHT30;61807;48.384;-4.386;2023-03-14T13:56:12;15.56;50.34
73547;SHT30;61807;48.384;-4.386;2023-03-14T13:58:39;15.37;50.46
73547;SHT30;61807;48.384;-4.386;2023-03-14T14:01:20;15.19;50.75
73547;SHT30;61807;48.384;-4.386;2023-03-14T14:03:50;15.06;51.36
73547;SHT30;61807;48.384;-4.386;2023-03-14T14:08:54;14.99;51.69
73547;SHT30;61807;48.384;-4.386;2023-03-14T14:13:52;14.98;51.46
73547;SHT30;61807;48.384;-4.386;2023-03-14T14:16:20;14.96;51.16
73547;SHT30;61807;48.384;-4.386;2023-03-14T14:18:47;15.07;51.33
73547;SHT30;61807;48.384;-4.386;2023-03-14T14:21:13;15.26;51.13
73547;SHT30;61807;48.384;-4.386;2023-03-14T14:23:39;15.19;50.41
73547;SHT30;61807;48.384;-4.386;2023-03-14T14:26:06;15.43;49.90
73547;SHT30;61807;48.384;-4.386;2023-03-14T14:28:34;15.44;49.96
73547;SHT30;61807;48.384;-4.386;2023-03-14T14:31:20;15.29;49.48
73547;SHT30;61807;48.384;-4.386;2023-03-14T14:34:00;15.06;49.65
73547;SHT30;61807;48.384;-4.386;2023-03-14T14:36:29;14.88;50.27
73547;SHT30;61807;48.384;-4.386;2023-03-14T14:39:03;14.72;51.17
73547;SHT30;61807;48.384;-4.386;2023-03-14T14:41:32;14.64;51.94
73547;SHT30;61807;48.384;-4.386;2023-03-14T14:43:59;14.55;52.36
73547;SHT30;61807;48.384;-4.386;2023-03-14T14:46:27;14.38;52.58
73547;SHT30;61807;48.384;-4.386;2023-03-14T14:48:57;14.24;52.90
73547;SHT30;61807;48.384;-4.386;2023-03-14T14:51:25;14.10;53.06
73547;SHT30;61807;48.384;-4.386;2023-03-14T14:54:02;14.06;53.01
73547;SHT30;61807;48.384;-4.386;2023-03-14T14:56:29;14.03;53.11
73547;SHT30;61807;48.384;-4.386;2023-03-14T14:58:59;14.00;53.30
73547;SHT30;61807;48.384;-4.386;2023-03-14T15:01:32;13.86;53.13
73547;SHT30;61807;48.384;-4.386;2023-03-14T15:03:59;13.62;53.09
73547;SHT30;61807;48.384;-4.386;2023-03-14T15:06:28;13.51;53.59
73547;SHT30;61807;48.384;-4.386;2023-03-14T15:08:54;13.41;54.09
73547;SHT30;61807;48.384;-4.386;2023-03-14T15:11:25;13.38;54.20
73547;SHT30;61807;48.384;-4.386;2023-03-14T15:13:51;13.38;54.41
73547;SHT30;61807;48.384;-4.386;2023-03-14T15:16:19;13.44;54.22
73547;SHT30;61807;48.384;-4.386;2023-03-14T15:18:52;13.41;54.12
73547;SHT30;61807;48.384;-4.386;2023-03-14T15:21:18;13.41;54.15
73547;SHT30;61807;48.384;-4.386;2023-03-14T15:23:43;13.35;54.49
73547;SHT30;61807;48.384;-4.386;2023-03-14T15:26:18;13.34;54.70
73547;SHT30;61807;48.384;-4.386;2023-03-14T15:28:44;13.28;54.85
73547;SHT30;61807;48.384;-4.386;2023-03-14T15:31:12;13.21;54.69
73547;SHT30;61807;48.384;-4.386;2023-03-14T15:33:38;13.14;54.88
73547;SHT30;61807;48.384;-4.386;2023-03-14T15:36:04;13.07;54.88
73547;SHT30;61807;48.384;-4.386;2023-03-14T15:38:30;13.00;55.16
73547;SHT30;61807;48.384;-4.386;2023-03-14T15:40:55;13.00;55.08
73547;SHT30;61807;48.384;-4.386;2023-03-14T15:43:21;12.97;54.98
73547;SHT30;61807;48.384;-4.386;2023-03-14T15:45:46;12.91;55.09
73547;SHT30;61807;48.384;-4.386;2023-03-14T15:48:21;12.89;55.16
73547;SHT30;61807;48.384;-4.386;2023-03-14T15:50:46;12.86;55.29
73547;SHT30;61807;48.384;-4.386;2023-03-14T15:53:13;12.87;55.40
73547;SHT30;61807;48.384;-4.386;2023-03-14T15:55:38;12.89;55.51
73547;SHT30;61807;48.384;-4.386;2023-03-14T15:58:04;12.94;55.60
73547;SHT30;61807;48.384;-4.386;2023-03-14T16:00:30;12.90;55.36
73547;SHT30;61807;48.384;-4.386;2023-03-14T16:02:55;12.87;55.50
73547;SHT30;61807;48.384;-4.386;2023-03-14T16:05:21;12.80;55.54
73547;SHT30;61807;48.384;-4.386;2023-03-14T16:07:47;12.75;55.25
73547;SHT30;61807;48.384;-4.386;2023-03-14T16:10:14;12.69;55.42
73547;SHT30;61807;48.384;-4.386;2023-03-14T16:12:40;12.66;55.61
73547;SHT30;61807;48.384;-4.386;2023-03-14T16:15:06;12.62;55.89
73547;SHT30;61807;48.384;-4.386;2023-03-14T16:17:32;12.59;56.08
73547;SHT30;61807;48.384;-4.386;2023-03-14T16:19:58;12.55;55.88
73547;SHT30;61807;48.384;-4.386;2023-03-14T16:22:23;12.49;56.13
73547;SHT30;61807;48.384;-4.386;2023-03-14T16:24:49;12.45;56.14
73547;SHT30;61807;48.384;-4.386;2023-03-14T16:27:14;12.43;56.35
73547;SHT30;61807;48.384;-4.386;2023-03-14T16:29:41;12.39;56.39